Palencia, Spain

4:03 PM CET on February 21, 2017 (GMT +0100)
IPALENCI6 | | Change Station

Elev 2510 ft 42.01 °N, 4.53 °W | Updated 1 second ago

Clear
Clear
58.2 °F
Feels Like 58.2 °F
N
5.0
Wind Variable Wind from NNE
Gusts 10.0 mph

Today
High -- | Low -- °F
--% Chance of Precip.
Yesterday
High -- | Low -- °F
Precip. -- in
Pressure 30.18 in
Visibility -9999.0 miles
Clouds
Dew Point 44 °F
Humidity 58%
Rainfall 0.00 in
Snow Depth Not available.
8:05 AM 6:58 PM
Waning Crescent, 25% visible
METAR LEVD 211430Z 07008KT 030V110 CAVOK 14/04 Q1022
Pressure 30.18 in
Visibility -9999.0 miles
Clouds
Dew Point 44 °F
Humidity 58%
Rainfall 0.00 in
Snow Depth Not available.
8:05 AM 6:58 PM
Waning Crescent, 25% visible
METAR LEVD 211430Z 07008KT 030V110 CAVOK 14/04 Q1022

Get Your Daily Forecast Email!

Thanks for signing up!

Be on the lookout for a verification email in your inbox.

You'll start receiving the daily forecast at 8 AM.

×

10-Day Weather Forecast

×

Almanac

Astronomy

Feb. 21, 2017 Rise Set
Actual Time
Civil Twilight
Nautical Twilight
Astronomical Twilight
Moon
Length of Visible Light
Length of Day
Tomorrow will be .
, % of the Moon is Illuminated

Today's Extremes

Country Highs Country Lows

Community

WunderPhotos

Upload Photos

1,962,540 photos uploaded!

WunderBlog® & News

Nearby

Air Quality

  Air Quality AQ Index Pollutant
Not available.

Snow Depth

Station Depth Elevation

Earthquake Activity

City Distance Mag. Time & Date
Minimum magnitude displayed is 2.5.

Coastal Water Temperatures

Place Temperature

Stations

Nearby Weather Stations

Station Location Temp. Windchill Dew Point Humidity Wind Precip. Elev Updated Type